Time;durP1;ratioP1;P1;durP2;ratioP2;P2;SDS_P1;SDS_P2;PMS_P1;PMS_P2;Temp;Humidity;BMP_temperature;BMP_pressure;BME280_temperature;BME280_humidity;BME280_pressure;Samples;Min_cycle;Max_cycle;Signal;HPM_P1;HPM_P2
2022/06/20 00:00:27;;;;;;;11.65;1.98;;;;;;;;;;4994254;28;20050;-65
2022/06/20 00:02:54;;;;;;;9.90;2.55;;;;;;;;;;4996048;28;20053;-65
2022/06/20 00:05:22;;;;;;;8.52;2.33;;;;;;;;;;5012245;28;20070;-65
2022/06/20 00:07:48;;;;;;;6.45;1.95;;;;;;;;;;4989674;28;20070;-65
2022/06/20 00:10:15;;;;;;;6.18;1.85;;;;;;;;;;4995310;28;20104;-65
2022/06/20 00:12:42;;;;;;;6.32;2.00;;;;;;;;;;4995511;28;20071;-65
2022/06/20 00:15:08;;;;;;;12.25;2.20;;;;;;;;;;4995425;28;20039;-65
2022/06/20 00:17:34;;;;;;;7.95;2.55;;;;;;;;;;4995612;28;20061;-65
2022/06/20 00:20:00;;;;;;;6.20;2.30;;;;;;;;;;5012793;28;20049;-65
2022/06/20 00:22:26;;;;;;;7.93;2.67;;;;;;;;;;4984711;28;20046;-65
2022/06/20 00:24:52;;;;;;;5.88;2.65;;;;;;;;;;4993480;28;20104;-65
2022/06/20 00:27:18;;;;;;;8.90;2.65;;;;;;;;;;4984135;28;20430;-65
2022/06/20 00:29:45;;;;;;;10.07;3.05;;;;;;;;;;5004514;28;20801;-65
2022/06/20 00:32:11;;;;;;;7.28;1.80;;;;;;;;;;5012947;28;20429;-65
2022/06/20 00:34:37;;;;;;;8.77;2.03;;;;;;;;;;4994709;28;20054;-66
2022/06/20 00:37:05;;;;;;;9.40;2.20;;;;;;;;;;4993092;28;20758;-65
2022/06/20 00:39:32;;;;;;;10.23;2.15;;;;;;;;;;4996911;28;20046;-66
2022/06/20 00:41:59;;;;;;;7.82;2.72;;;;;;;;;;5003557;28;20446;-65
2022/06/20 00:44:37;;;;;;;10.93;2.97;;;;;;;;;;4976171;28;20403;-65
2022/06/20 00:47:09;;;;;;;6.53;1.73;;;;;;;;;;4989711;28;20085;-65
2022/06/20 00:49:40;;;;;;;8.55;2.35;;;;;;;;;;4977796;28;20050;-65
2022/06/20 00:52:11;;;;;;;7.93;2.47;;;;;;;;;;4994873;28;20390;-65
2022/06/20 00:54:37;;;;;;;7.72;1.60;;;;;;;;;;4995337;28;20129;-65
2022/06/20 00:57:06;;;;;;;7.22;2.00;;;;;;;;;;5011730;28;20622;-65
2022/06/20 00:59:34;;;;;;;6.68;1.70;;;;;;;;;;5010242;28;20552;-65
2022/06/20 01:02:03;;;;;;;8.25;1.60;;;;;;;;;;4979044;28;20052;-65
2022/06/20 01:04:32;;;;;;;8.13;1.80;;;;;;;;;;4993746;28;20395;-65
2022/06/20 01:06:59;;;;;;;10.35;1.80;;;;;;;;;;5012340;28;20052;-64
2022/06/20 01:09:31;;;;;;;5.35;1.48;;;;;;;;;;5011844;28;20562;-64
2022/06/20 01:12:02;;;;;;;9.10;1.73;;;;;;;;;;4991762;28;20045;-65
2022/06/20 01:14:35;;;;;;;7.53;1.40;;;;;;;;;;5009904;28;20050;-65
2022/06/20 01:17:15;;;;;;;8.43;1.42;;;;;;;;;;4978652;28;20049;-64
2022/06/20 01:20:02;;;;;;;6.53;1.58;;;13.10;99.90;;;;;;5011212;28;20053;-65
2022/06/20 01:22:53;;;;;;;9.30;2.15;;;13.20;99.90;;;;;;4983666;28;20045;-65
2022/06/20 01:25:19;;;;;;;;;;;;;;;;;;4995011;28;20104;-65
2022/06/20 01:27:46;;;;;;;9.65;1.92;;;;;;;;;;4992195;28;20333;-65
2022/06/20 01:30:12;;;;;;;12.20;2.58;;;;;;;;;;4980058;28;20516;-64
2022/06/20 01:32:39;;;;;;;5.75;1.63;;;;;;;;;;4994130;28;20490;-65
2022/06/20 01:35:08;;;;;;;8.80;1.42;;;;;;;;;;4991841;28;20057;-65
2022/06/20 01:37:35;;;;;;;6.50;1.52;;;;;;;;;;4994502;28;20129;-65
2022/06/20 01:40:06;;;;;;;5.72;1.40;;;;;;;;;;4994283;28;20050;-65
2022/06/20 01:42:33;;;;;;;7.07;1.60;;;;;;;;;;4995582;28;20065;-65
2022/06/20 01:45:02;;;;;;;12.32;1.90;;;;;;;;;;5000858;28;20053;-65
2022/06/20 01:47:29;;;;;;;7.20;1.33;;;;;;;;;;5012132;28;20544;-65
2022/06/20 01:50:00;;;;;;;7.57;1.52;;;;;;;;;;5015875;28;20529;-64
2022/06/20 01:52:41;;;;;;;5.05;1.10;;;;;;;;;;5015413;28;20054;-65
2022/06/20 01:55:07;;;;;;;7.82;1.60;;;;;;;;;;5000605;28;20112;-64
2022/06/20 01:57:34;;;;;;;6.88;1.70;;;;;;;;;;5007652;28;20060;-64
2022/06/20 02:00:02;;;;;;;5.75;1.65;;;;;;;;;;5013857;28;20410;-65
2022/06/20 02:02:30;;;;;;;4.57;1.42;;;;;;;;;;4997137;28;20490;-64
2022/06/20 02:04:56;;;;;;;5.90;1.48;;;;;;;;;;4997740;28;20520;-64
2022/06/20 02:07:22;;;;;;;7.60;1.63;;;;;;;;;;5005873;28;20042;-64
2022/06/20 02:09:48;;;;;;;6.20;1.50;;;;;;;;;;5011797;28;20117;-64
2022/06/20 02:12:15;;;;;;;5.53;1.58;;;;;;;;;;5013354;28;20459;-65
2022/06/20 02:14:45;;;;;;;7.30;1.60;;;;;;;;;;5014858;28;20038;-65
2022/06/20 02:17:16;;;;;;;6.03;1.73;;;;;;;;;;5015264;28;20045;-65
2022/06/20 02:19:47;;;;;;;9.70;1.63;;;;;;;;;;5007577;28;20081;-65
2022/06/20 02:22:13;;;;;;;10.38;1.80;;;;;;;;;;5008954;28;20056;-65
2022/06/20 02:24:41;;;;;;;6.05;1.63;;;;;;;;;;5014330;28;20054;-65
2022/06/20 02:27:11;;;;;;;8.90;1.80;;;;;;;;;;5014275;28;20081;-65
2022/06/20 02:29:37;;;;;;;5.55;1.73;;;;;;;;;;4997809;28;20038;-65
2022/06/20 02:32:07;;;;;;;9.45;1.88;;;;;;;;;;4997639;28;20057;-65
2022/06/20 02:34:34;;;;;;;10.15;2.40;;;;;;;;;;5020642;28;20060;-65
2022/06/20 02:37:02;;;;;;;8.43;2.63;;;;;;;;;;5021441;28;20065;-65
2022/06/20 02:39:28;;;;;;;7.03;1.35;;;;;;;;;;4997314;28;20056;-64
2022/06/20 02:41:59;;;;;;;8.77;1.77;;;;;;;;;;5013718;28;20102;-64
2022/06/20 02:44:26;;;;;;;8.98;1.70;;;;;;;;;;4997758;28;20050;-65
2022/06/20 02:46:52;;;;;;;7.15;1.48;;;;;;;;;;4980559;28;20038;-64
2022/06/20 02:49:20;;;;;;;8.10;1.50;;;;;;;;;;4995737;28;20058;-65
2022/06/20 02:51:50;;;;;;;4.95;1.60;;;;;;;;;;5011554;28;20053;-64
2022/06/20 02:54:18;;;;;;;8.02;2.20;;;;;;;;;;4997653;28;20172;-64
2022/06/20 02:56:51;;;;;;;4.72;1.70;;;;;;;;;;5012972;28;20052;-65
2022/06/20 02:59:25;;;;;;;5.90;2.40;;;;;;;;;;4996377;28;20058;-64
2022/06/20 03:02:02;;;;;;;12.77;1.92;;;;;;;;;;4992711;28;20074;-65
2022/06/20 03:04:30;;;;;;;6.70;1.70;;;;;;;;;;4998403;28;20091;-65
2022/06/20 03:07:00;;;;;;;5.40;2.03;;;;;;;;;;4979191;28;20049;-64
2022/06/20 03:09:28;;;;;;;6.18;1.90;;;;;;;;;;5014385;28;20042;-64
2022/06/20 03:11:55;;;;;;;7.32;1.80;;;;;;;;;;5012959;28;20046;-64
2022/06/20 03:14:24;;;;;;;4.68;2.05;;;;;;;;;;5013693;28;20125;-65
2022/06/20 03:16:50;;;;;;;6.88;2.47;;;;;;;;;;4995817;28;20077;-65
2022/06/20 03:19:27;;;;;;;9.15;1.90;;;;;;;;;;4980739;28;20398;-64
2022/06/20 03:21:54;;;;;;;6.18;1.65;;;;;;;;;;4994981;28;20561;-65
2022/06/20 03:24:22;;;;;;;9.77;2.47;;;;;;;;;;4980612;28;20129;-64
2022/06/20 03:26:48;;;;;;;5.07;2.00;;;;;;;;;;5012169;28;20045;-64
2022/06/20 03:29:16;;;;;;;8.25;2.35;;;;;;;;;;5012848;28;20049;-65
2022/06/20 03:31:42;;;;;;;6.15;2.10;;;;;;;;;;4987364;28;20038;-65
2022/06/20 03:34:08;;;;;;;12.15;2.45;;;;;;;;;;4996702;28;20056;-65
2022/06/20 03:36:35;;;;;;;6.75;2.25;;;;;;;;;;4992605;28;20528;-65
2022/06/20 03:39:01;;;;;;;5.72;2.20;;;;;;;;;;5012219;28;20053;-65
2022/06/20 03:41:27;;;;;;;8.98;2.38;;;;;;;;;;4996558;28;20088;-65
2022/06/20 03:43:59;;;;;;;9.10;2.72;;;;;;;;;;5012057;28;20772;-65
2022/06/20 03:46:29;;;;;;;8.80;2.08;;;;;;;;;;5013786;28;20104;-65
2022/06/20 03:49:04;;;;;;;5.43;2.13;;;;;;;;;;4992872;28;20050;-64
2022/06/20 03:51:38;;;;;;;6.30;1.77;;;;;;;;;;4995163;28;20046;-65
2022/06/20 03:54:08;;;;;;;5.07;1.83;;;;;;;;;;4995607;28;20133;-65
2022/06/20 03:56:42;;;;;;;11.13;3.40;;;;;;;;;;5012379;28;20068;-65
2022/06/20 03:59:16;;;;;;;5.55;2.38;;;;;;;;;;4979165;28;20116;-66
2022/06/20 04:01:46;;;;;;;4.03;1.90;;;;;;;;;;5013363;28;20046;-66
2022/06/20 04:04:18;;;;;;;9.52;2.50;;;;;;;;;;4994458;28;20053;-65
2022/06/20 04:06:46;;;;;;;5.95;2.55;;;;;;;;;;5011980;28;20041;-65
2022/06/20 04:12:13;;;;;;;10.65;3.30;;;;;;;;;;4995626;28;20069;-65
2022/06/20 04:14:46;;;;;;;8.45;2.72;;;;;;;;;;5012984;28;20050;-65
2022/06/20 04:20:03;;;;;;;;;;;;;;;;;;5001547;28;20053;-62
2022/06/20 04:22:34;;;;;;;7.13;2.95;;;;;;;;;;5003994;28;20352;-62
2022/06/20 04:25:04;;;;;;;8.68;3.13;;;;;;;;;;4992875;28;20042;-62
2022/06/20 04:27:39;;;;;;;6.10;2.53;;;;;;;;;;5012667;28;20104;-63
2022/06/20 04:30:08;;;;;;;8.30;2.83;;;;;;;;;;5008676;28;20050;-62
2022/06/20 04:32:34;;;;;;;7.78;2.20;;;;;;;;;;4995426;28;20581;-62
2022/06/20 04:35:12;;;;;;;7.97;3.10;;;;;;;;;;4995141;28;20210;-62
2022/06/20 04:37:41;;;;;;;6.03;2.72;;;;;;;;;;5011459;28;20529;-62
2022/06/20 04:40:07;;;;;;;11.07;3.25;;;;;;;;;;4995676;28;20046;-63
2022/06/20 04:42:52;;;;;;;11.45;3.03;;;;;;;;;;5008718;28;20050;-62
2022/06/20 04:45:21;;;;;;;9.27;2.53;;;;;;;;;;5017916;28;20041;-62
2022/06/20 04:47:47;;;;;;;13.50;2.72;;;;;;;;;;5002179;28;20046;-62
2022/06/20 04:50:17;;;;;;;10.00;3.45;;;;;;;;;;5012955;28;20064;-63
2022/06/20 04:52:44;;;;;;;13.45;3.15;;;;;;;;;;5022789;28;20577;-62
2022/06/20 04:55:14;;;;;;;8.63;2.92;;;;;;;;;;5032399;28;20067;-63
2022/06/20 04:57:40;;;;;;;9.60;3.10;;;;;;;;;;5012422;28;20061;-62
2022/06/20 05:00:14;;;;;;;10.23;3.47;;;;;;;;;;5009845;28;20042;-62
2022/06/20 05:02:40;;;;;;;12.57;3.47;;;;;;;;;;5026742;28;20045;-63
2022/06/20 05:05:10;;;;;;;8.70;2.85;;;;;;;;;;5011118;28;20049;-62
2022/06/20 05:07:37;;;;;;;11.77;2.92;;;;;;;;;;5009823;28;20128;-62
2022/06/20 05:10:08;;;;;;;6.95;2.90;;;;;;;;;;5008853;28;20045;-61
2022/06/20 05:12:40;;;;;;;8.18;2.88;;;;;;;;;;5009712;28;20054;-65
2022/06/20 05:15:10;;;;;;;12.20;3.13;;;;;;;;;;4993833;28;20042;-64
2022/06/20 05:17:37;;;;;;;10.30;3.10;;;;;;;;;;5007214;28;20077;-65
2022/06/20 05:20:18;;;;;;;7.35;2.95;;;;;;;;;;4993095;28;20045;-64
2022/06/20 05:22:48;;;;;;;9.90;2.90;;;;;;;;;;5017250;28;20085;-64
2022/06/20 05:25:16;;;;;;;13.55;3.22;;;;;;;;;;4994834;28;20049;-64
2022/06/20 05:28:15;;;;;;;11.07;3.30;;;;;;;;;;5015178;28;20038;-64
2022/06/20 05:30:42;;;;;;;7.10;3.42;;;;;;;;;;4987899;28;20053;-64
2022/06/20 05:33:15;;;;;;;8.60;3.60;;;;;;;;;;4996090;28;20042;-65
2022/06/20 05:35:53;;;;;;;10.27;3.35;;;;;;;;;;5009904;28;20044;-65
2022/06/20 05:38:28;;;;;;;9.73;3.22;;;;;;;;;;4988922;28;20046;-64
2022/06/20 05:40:56;;;;;;;8.85;3.42;;;;;;;;;;5036225;28;20404;-65
2022/06/20 05:43:22;;;;;;;9.30;3.15;;;;;;;;;;5004919;28;20092;-64
2022/06/20 05:46:07;;;;;;;12.43;4.18;;;;;;;;;;5000480;28;20038;-65
2022/06/20 05:48:36;;;;;;;14.18;3.80;;;;;;;;;;4994214;28;20418;-64
2022/06/20 05:51:04;;;;;;;9.43;2.90;;;15.70;99.90;;;;;;5009971;28;20042;-66
2022/06/20 05:53:33;;;;;;;11.82;3.20;;;;;;;;;;5007489;28;20050;-65
2022/06/20 05:56:01;;;;;;;15.75;3.67;;;;;;;;;;5000969;28;20046;-64
2022/06/20 05:58:33;;;;;;;16.02;4.35;;;;;;;;;;5017493;28;20129;-64
2022/06/20 06:01:03;;;;;;;14.63;3.75;;;;;;;;;;4994992;28;20046;-65
2022/06/20 06:03:41;;;;;;;9.95;2.95;;;16.10;99.90;;;;;;5018500;28;20050;-65
2022/06/20 06:06:15;;;;;;;10.68;3.13;;;;;;;;;;4983198;28;20129;-65
2022/06/20 06:08:49;;;;;;;8.32;3.28;;;;;;;;;;5009659;28;20046;-63
2022/06/20 06:11:23;;;;;;;11.43;2.85;;;;;;;;;;5011219;28;20057;-64
2022/06/20 06:13:49;;;;;;;11.65;2.78;;;;;;;;;;4999002;28;20502;-64
2022/06/20 06:19:13;;;;;;;11.27;2.67;;;;;;;;;;5010234;28;20403;-64
2022/06/20 06:21:40;;;;;;;14.57;3.35;;;;;;;;;;4994231;28;20046;-63
2022/06/20 06:24:06;;;;;;;11.98;3.85;;;;;;;;;;4980324;28;20096;-63
2022/06/20 06:26:35;;;;;;;11.48;2.90;;;;;;;;;;5008628;28;20125;-63
2022/06/20 06:32:32;;;;;;;8.60;2.90;;;;;;;;;;5008014;28;20073;-63
2022/06/20 06:35:07;;;;;;;7.43;2.10;;;;;;;;;;4987780;28;20053;-63
2022/06/20 06:37:58;;;;;;;10.00;2.72;;;16.60;99.90;;;;;;5007163;28;20049;-62
2022/06/20 06:40:43;;;;;;;14.90;4.68;;;;;;;;;;4978280;28;20075;-62
2022/06/20 06:43:15;;;;;;;13.73;2.55;;;;;;;;;;5003861;28;20041;-62
2022/06/20 06:45:42;;;;;;;8.60;3.03;;;;;;;;;;5007626;28;20042;-62
2022/06/20 06:48:17;;;;;;;9.38;2.85;;;;;;;;;;5007588;28;20050;-62
2022/06/20 06:50:48;;;;;;;17.92;4.15;;;;;;;;;;5007838;28;20144;-62
2022/06/20 06:53:21;;;;;;;10.40;2.45;;;;;;;;;;5003990;28;20128;-62
2022/06/20 06:55:50;;;;;;;9.00;2.13;;;;;;;;;;5006253;28;20545;-64
2022/06/20 06:58:16;;;;;;;10.15;2.47;;;;;;;;;;4988510;28;20069;-63
2022/06/20 07:00:44;;;;;;;11.55;2.78;;;;;;;;;;5007062;28;20033;-63
2022/06/20 07:03:19;;;;;;;12.50;2.35;;;;;;;;;;5006107;28;20132;-63
2022/06/20 07:05:49;;;;;;;9.57;3.00;;;;;;;;;;5002979;28;20054;-63
2022/06/20 07:08:17;;;;;;;10.13;2.60;;;;;;;;;;5005772;28;20052;-63
2022/06/20 07:10:56;;;;;;;13.63;2.28;;;;;;;;;;5004239;28;20398;-63
2022/06/20 07:14:03;;;;;;;10.70;2.30;;;17.60;99.90;;;;;;5006334;28;20053;-63
2022/06/20 07:16:46;;;;;;;9.68;2.40;;;;;;;;;;5013756;28;20075;-63
2022/06/20 07:19:13;;;;;;;8.02;2.22;;;17.70;99.90;;;;;;5011780;28;20046;-62
2022/06/20 07:21:40;;;;;;;9.70;3.53;;;;;;;;;;5011773;28;20050;-63
2022/06/20 07:24:11;;;;;;;9.35;2.17;;;18.00;99.90;;;;;;5012228;28;20053;-62
2022/06/20 07:27:19;;;;;;;7.28;2.50;;;18.30;99.90;;;;;;4995380;28;20049;-63
2022/06/20 07:29:50;;;;;;;11.48;2.63;;;18.20;99.90;;;;;;4990741;28;20131;-63
2022/06/20 07:32:31;;;;;;;8.68;2.30;;;18.40;99.90;;;;;;5011918;28;20053;-63
2022/06/20 07:35:07;;;;;;;8.13;2.45;;;18.50;99.90;;;;;;5011231;28;20060;-63
2022/06/20 07:37:41;;;;;;;8.43;2.25;;;18.70;99.90;;;;;;4991724;28;20057;-63
2022/06/20 07:40:07;;;;;;;10.60;2.15;;;;;;;;;;5011767;28;20038;-63
2022/06/20 07:42:33;;;;;;;6.28;2.10;;;;;;;;;;5012151;28;20460;-62
2022/06/20 07:45:15;;;;;;;6.50;2.20;;;18.80;99.90;;;;;;4979126;28;20050;-63
2022/06/20 07:47:50;;;;;;;5.22;1.65;;;;;;;;;;4996860;28;20042;-63
2022/06/20 07:50:21;;;;;;;11.05;2.30;;;18.50;99.90;;;;;;5010235;28;20052;-63
2022/06/20 07:53:04;;;;;;;6.32;1.80;;;18.40;99.90;;;;;;4990876;28;20133;-57
2022/06/20 07:55:31;;;;;;;7.70;2.22;;;18.90;99.90;;;;;;5005348;28;20062;-55
2022/06/20 07:58:23;;;;;;;6.97;1.80;;;19.20;99.90;;;;;;5003918;28;20050;-56
2022/06/20 08:00:55;;;;;;;7.35;2.17;;;;;;;;;;4990100;28;20064;-55
2022/06/20 08:03:33;;;;;;;7.15;1.92;;;;;;;;;;5003980;28;20052;-57
2022/06/20 08:06:12;;;;;;;5.93;1.65;;;;;;;;;;4986334;28;20502;-58
2022/06/20 08:08:41;;;;;;;9.23;2.20;;;;;;;;;;5003309;28;20033;-57
2022/06/20 08:11:41;;;;;;;6.70;1.80;;;18.00;99.90;;;;;;5003256;28;20137;-56
2022/06/20 08:14:35;;;;;;;7.47;1.65;;;18.20;99.90;;;;;;5004892;28;20049;-54
2022/06/20 08:17:03;;;;;;;7.30;1.42;;;;;;;;;;4986481;28;20053;-55
2022/06/20 08:19:30;;;;;;;8.00;1.50;;;18.00;99.90;;;;;;5002491;28;20077;-56
2022/06/20 08:22:05;;;;;;;7.18;1.70;;;;;;;;;;5003959;28;20525;-55
2022/06/20 08:24:36;;;;;;;6.53;2.22;;;;;;;;;;4988303;28;20056;-57
2022/06/20 08:27:08;;;;;;;5.35;1.23;;;18.70;99.90;;;;;;5004648;28;20049;-57
2022/06/20 08:29:43;;;;;;;5.57;1.15;;;19.00;99.90;;;;;;5004722;28;20052;-57
2022/06/20 08:32:35;;;;;;;10.48;1.40;;;19.30;99.90;;;;;;4986665;28;20084;-57
2022/06/20 08:35:14;;;;;;;6.25;1.23;;;19.40;99.90;;;;;;5002890;28;20054;-55
2022/06/20 08:37:45;;;;;;;6.30;1.17;;;19.20;99.90;;;;;;5003171;28;20494;-57
2022/06/20 08:40:27;;;;;;;4.68;1.40;;;19.20;99.90;;;;;;5006824;28;20065;-58
2022/06/20 08:43:20;;;;;;;4.25;1.35;;;19.40;99.90;;;;;;5006909;28;20149;-59
2022/06/20 08:46:00;;;;;;;8.32;1.60;;;19.70;99.90;;;;;;4985931;28;20093;-57
2022/06/20 08:48:38;;;;;;;;;;;19.40;99.90;;;;;;4987514;28;20167;-57
2022/06/20 08:51:22;;;;;;;3.05;1.23;;;19.60;99.90;;;;;;5003186;28;20300;-55
2022/06/20 08:54:13;;;;;;;4.28;1.35;;;19.60;99.90;;;;;;5004914;28;20044;-58
2022/06/20 08:57:01;;;;;;;5.38;1.67;;;19.60;99.90;;;;;;5003261;28;20828;-57
2022/06/20 08:59:52;;;;;;;7.25;1.50;;;20.00;99.90;;;;;;5015467;28;20103;-56
2022/06/20 09:02:18;;;;;;;6.30;1.55;;;;;;;;;;4996739;28;20482;-57
2022/06/20 09:05:06;;;;;;;5.72;1.80;;;19.80;99.90;;;;;;5023067;28;20037;-56
2022/06/20 09:07:58;;;;;;;5.53;1.73;;;19.90;99.90;;;;;;4999817;28;20092;-57
2022/06/20 09:10:38;;;;;;;7.10;1.48;;;19.80;99.90;;;;;;5009592;28;20169;-57
2022/06/20 09:13:04;;;;;;;11.27;1.67;;;;;;;;;;5010748;28;20398;-57
2022/06/20 09:15:48;;;;;;;9.27;1.52;;;20.10;99.90;;;;;;5011284;28;20046;-57
2022/06/20 09:18:29;;;;;;;3.78;1.30;;;20.50;99.90;;;;;;5003765;28;20052;-57
2022/06/20 09:21:11;;;;;;;6.63;1.50;;;20.30;99.90;;;;;;5009861;28;20076;-57
2022/06/20 09:24:18;;;;;;;5.80;2.95;;;19.80;99.90;;;;;;4993802;28;20056;-56
2022/06/20 09:26:50;;;;;;;4.80;1.10;;;19.60;99.90;;;;;;5002469;28;20058;-57
2022/06/20 09:29:42;;;;;;;4.90;1.50;;;19.40;99.90;;;;;;5009430;28;20053;-57
2022/06/20 09:32:26;;;;;;;8.00;1.80;;;;;;;;;;4993859;28;20060;-56
2022/06/20 09:35:05;;;;;;;6.00;1.70;;;;;;;;;;4988102;28;20184;-58
2022/06/20 09:37:49;;;;;;;7.53;1.58;;;;;;;;;;5005218;28;20038;-57
2022/06/20 09:40:21;;;;;;;7.05;1.92;;;;;;;;;;5015224;28;20046;-59
2022/06/20 09:42:50;;;;;;;8.02;2.05;;;;;;;;;;4998755;28;20065;-57
2022/06/20 09:45:22;;;;;;;3.30;1.40;;;;;;;;;;5001441;28;20038;-57
2022/06/20 09:47:56;;;;;;;5.43;1.30;;;;;;;;;;5003470;28;20398;-57
2022/06/20 09:50:56;;;;;;;5.22;1.35;;;19.40;99.90;;;;;;5002925;28;20103;-57
2022/06/20 09:53:40;;;;;;;8.60;1.80;;;19.30;99.90;;;;;;5005073;28;20542;-58
2022/06/20 09:56:29;;;;;;;11.88;1.90;;;18.90;99.90;;;;;;4987426;28;20096;-59
2022/06/20 09:59:07;;;;;;;10.30;1.75;;;;;;;;;;4986407;28;20504;-57
2022/06/20 10:01:36;;;;;;;5.70;1.48;;;;;;;;;;5001129;28;20187;-57
2022/06/20 10:04:08;;;;;;;9.55;2.08;;;18.80;99.90;;;;;;5002440;28;20452;-57
2022/06/20 10:06:54;;;;;;;5.80;1.67;;;18.90;99.90;;;;;;5000919;28;20128;-57
2022/06/20 10:09:37;;;;;;;6.53;1.80;;;19.30;99.90;;;;;;5004670;28;20062;-57
2022/06/20 10:12:18;;;;;;;9.10;2.08;;;19.90;99.90;;;;;;5005125;28;20865;-58
2022/06/20 10:15:09;;;;;;;7.10;1.55;;;19.90;99.90;;;;;;5009924;28;20406;-58
2022/06/20 10:17:38;;;;;;;5.13;1.98;;;;;;;;;;4978392;28;20132;-58
2022/06/20 10:20:04;;;;;;;8.30;2.17;;;;;;;;;;5004592;28;20053;-57
2022/06/20 10:22:59;;;;;;;8.20;2.10;;;19.20;99.90;;;;;;5007211;28;20042;-58
2022/06/20 10:25:45;;;;;;;7.60;1.80;;;19.60;99.90;;;;;;5007250;28;20129;-58
2022/06/20 10:28:24;;;;;;;8.18;2.28;;;19.70;99.90;;;;;;5007317;28;20038;-57
2022/06/20 10:31:20;;;;;;;6.80;1.67;;;20.00;99.90;;;;;;5006310;28;20045;-57
2022/06/20 10:34:06;;;;;;;10.50;1.65;;;;;;;;;;5018278;28;20453;-57
2022/06/20 10:36:51;;;;;;;8.88;1.92;;;20.10;99.90;;;;;;4989044;28;20077;-57
2022/06/20 10:39:25;;;;;;;10.32;2.03;;;20.30;99.90;;;;;;5011166;28;20061;-57
2022/06/20 10:42:30;;;;;;;7.55;1.60;;;20.10;99.90;;;;;;5005733;28;20453;-57
2022/06/20 10:44:56;;;;;;;9.63;1.70;;;;;;;;;;5009734;28;20058;-58
2022/06/20 10:47:39;;;;;;;8.48;1.90;;;;;;;;;;5020928;28;20667;-57
2022/06/20 10:50:08;;;;;;;7.18;1.50;;;;;;;;;;5009925;28;20057;-58
2022/06/20 10:52:37;;;;;;;11.02;2.33;;;;;;;;;;5006504;28;20041;-57
2022/06/20 10:55:36;;;;;;;6.03;1.73;;;;;;;;;;5026738;28;20128;-57
2022/06/20 10:58:20;;;;;;;11.20;2.60;;;19.80;99.90;;;;;;4942383;28;20520;-58
2022/06/20 11:00:55;;;;;;;6.28;2.25;;;19.80;99.90;;;;;;5026707;28;20048;-57
2022/06/20 11:03:41;;;;;;;7.97;1.90;;;20.00;99.90;;;;;;5023042;28;20045;-57
2022/06/20 11:06:41;;;;;;;5.78;1.70;;;20.40;99.90;;;;;;5011697;28;20095;-57
2022/06/20 11:09:18;;;;;;;8.02;1.70;;;20.10;99.90;;;;;;5010906;28;20394;-57
2022/06/20 11:12:10;;;;;;;5.95;1.50;;;20.70;99.90;;;;;;5011883;28;20057;-57
2022/06/20 11:14:36;;;;;;;8.25;2.10;;;;;;;;;;5005341;28;20049;-57
2022/06/20 11:17:20;;;;;;;6.63;1.50;;;;;;;;;;5010652;28;20049;-57
2022/06/20 11:20:08;;;;;;;7.57;1.52;;;20.60;99.90;;;;;;5001673;28;20188;-58
2022/06/20 11:22:42;;;;;;;7.88;2.03;;;20.30;99.90;;;;;;4982928;28;20056;-59
2022/06/20 11:25:22;;;;;;;11.25;2.45;;;;;;;;;;5006498;28;20483;-58
2022/06/20 11:28:07;;;;;;;12.02;2.08;;;20.20;99.90;;;;;;5006727;28;20179;-60
2022/06/20 11:31:00;;;;;;;5.60;1.33;;;20.30;99.90;;;;;;5009047;28;20065;-59
2022/06/20 11:36:18;;;;;;;8.13;2.08;;;;;;;;;;5021381;28;20064;-58
2022/06/20 11:38:57;;;;;;;5.38;1.85;;;;;;;;;;5014256;28;20041;-58
2022/06/20 11:41:30;;;;;;;10.85;1.83;;;;;;;;;;4987797;28;20081;-60
2022/06/20 11:44:11;;;;;;;8.20;1.60;;;;;;;;;;4995052;28;20132;-59
2022/06/20 11:46:43;;;;;;;8.82;2.15;;;;;;;;;;5003109;28;20049;-59
2022/06/20 11:49:27;;;;;;;20.70;2.75;;;20.10;99.90;;;;;;5006269;28;20046;-61
2022/06/20 11:52:37;;;;;;;6.20;1.60;;;20.20;99.90;;;;;;5006638;28;20391;-59
2022/06/20 11:55:37;;;;;;;3.92;1.40;;;20.60;99.90;;;;;;5004491;28;20509;-60
2022/06/20 11:58:06;;;;;;;5.32;1.75;;;;;;;;;;4990478;28;20053;-60
2022/06/20 12:00:53;;;;;;;5.28;1.35;;;20.80;99.90;;;;;;5012157;28;20054;-60
2022/06/20 12:03:33;;;;;;;5.20;1.70;;;20.50;99.90;;;;;;5012571;28;20562;-60
2022/06/20 12:06:06;;;;;;;3.50;1.30;;;;;;;;;;4993758;28;20402;-60
2022/06/20 12:09:02;;;;;;;7.00;2.13;;;19.90;99.90;;;;;;5011993;28;20132;-59
2022/06/20 12:11:31;;;;;;;3.58;1.52;;;;;;;;;;4994520;28;20057;-59
2022/06/20 12:14:00;;;;;;;7.13;1.40;;;;;;;;;;5010396;28;20191;-57
2022/06/20 12:16:26;;;;;;;5.10;1.55;;;;;;;;;;5008628;28;20056;-58
2022/06/20 12:24:46;;;;;;;7.30;1.75;;;19.90;99.90;;;;;;4990858;28;20045;-64
2022/06/20 12:27:16;;;;;;;5.30;1.77;;;19.10;99.90;;;;;;4979690;28;20058;-65
2022/06/20 12:29:43;;;;;;;4.63;1.77;;;;;;;;;;4995865;28;20078;-65
2022/06/20 12:32:21;;;;;;;6.35;1.88;;;;;;;;;;4977924;28;20042;-65
2022/06/20 12:34:55;;;;;;;5.55;1.77;;;20.10;99.90;;;;;;5011671;28;20042;-65
2022/06/20 12:37:20;;;;;;;8.88;2.10;;;;;;;;;;4981292;28;20508;-65
2022/06/20 12:39:58;;;;;;;16.13;1.80;;;20.70;99.90;;;;;;4994526;28;20129;-65
2022/06/20 12:42:36;;;;;;;5.55;1.73;;;;;;;;;;4994146;28;20123;-65
2022/06/20 12:45:23;;;;;;;12.27;2.13;;;20.50;99.90;;;;;;4991723;28;20545;-61
2022/06/20 12:47:49;;;;;;;4.50;1.45;;;;;;;;;;5012478;28;20127;-60
2022/06/20 12:50:19;;;;;;;4.22;1.25;;;19.90;99.90;;;;;;5012583;28;20509;-62
2022/06/20 12:52:58;;;;;;;4.25;1.60;;;;;;;;;;5010378;28;20150;-69
2022/06/20 12:55:31;;;;;;;5.05;1.30;;;;;;;;;;4988554;28;20418;-66
2022/06/20 12:57:57;;;;;;;4.10;1.42;;;;;;;;;;5007188;28;20124;-67
2022/06/20 13:00:41;;;;;;;8.25;1.98;;;19.20;99.90;;;;;;5011824;28;20077;-67
2022/06/20 13:03:30;;;;;;;8.63;1.80;;;;;;;;;;4990729;28;20041;-71
2022/06/20 13:05:56;;;;;;;6.07;1.60;;;;;;;;;;5001435;28;20109;-68
2022/06/20 13:08:40;;;;;;;8.13;1.38;;;;;;;;;;4996635;28;20051;-68
2022/06/20 13:11:07;;;;;;;3.95;1.30;;;;;;;;;;4981671;28;20046;-67
2022/06/20 13:13:39;;;;;;;5.50;1.35;;;;;;;;;;4980055;28;20045;-68
2022/06/20 13:16:35;;;;;;;5.82;1.50;;;19.50;99.90;;;;;;4992037;28;20042;-68
2022/06/20 13:19:07;;;;;;;5.32;1.42;;;;;;;;;;4989382;28;20137;-68
2022/06/20 13:21:54;;;;;;;4.35;1.40;;;20.50;99.90;;;;;;5011496;28;20117;-68
2022/06/20 13:24:51;;;;;;;8.32;1.77;;;20.50;99.90;;;;;;4988149;28;20050;-68
2022/06/20 13:27:28;;;;;;;6.18;1.90;;;;;;;;;;5009151;28;20046;-68
2022/06/20 13:30:21;;;;;;;5.97;1.58;;;;;;;;;;4963459;28;20046;-69
2022/06/20 13:32:57;;;;;;;4.50;1.65;;;;;;;;;;5004588;28;20058;-68
2022/06/20 13:35:23;;;;;;;4.95;1.73;;;;;;;;;;5008673;28;20130;-68
2022/06/20 13:38:14;;;;;;;8.45;2.22;;;20.10;99.90;;;;;;4983593;28;20053;-68
2022/06/20 13:40:52;;;;;;;4.90;1.45;;;20.50;99.90;;;;;;5006143;28;20080;-65
2022/06/20 13:43:30;;;;;;;2.85;1.20;;;20.50;99.90;;;;;;4991879;28;20057;-66
2022/06/20 13:46:06;;;;;;;5.93;1.63;;;20.70;99.90;;;;;;5019289;28;20053;-67
2022/06/20 13:48:43;;;;;;;5.63;1.60;;;20.60;99.90;;;;;;5014634;28;20169;-68
2022/06/20 13:51:28;;;;;;;4.82;1.77;;;20.50;99.90;;;;;;5014062;28;20129;-67
2022/06/20 13:54:17;;;;;;;4.20;1.40;;;20.10;99.90;;;;;;5014298;28;20108;-68
2022/06/20 13:57:03;;;;;;;3.63;1.63;;;;;;;;;;5004921;28;20042;-67
2022/06/20 13:59:45;;;;;;;4.78;1.15;;;20.70;99.90;;;;;;4997488;28;20042;-67
2022/06/20 14:02:40;;;;;;;4.55;1.50;;;20.80;99.90;;;;;;5001446;28;20045;-67
2022/06/20 14:05:09;;;;;;;5.93;1.23;;;;;;;;;;4998930;28;20046;-67
2022/06/20 14:07:36;;;;;;;7.32;1.60;;;;;;;;;;4992053;28;20046;-68
2022/06/20 14:10:02;;;;;;;7.30;2.40;;;;;;;;;;4989190;28;20063;-67
2022/06/20 14:12:31;;;;;;;5.00;1.55;;;;;;;;;;5007940;28;20050;-67
2022/06/20 14:14:59;;;;;;;3.92;1.52;;;;;;;;;;5013583;28;20046;-67
2022/06/20 14:17:28;;;;;;;5.25;1.50;;;19.40;99.90;;;;;;5011612;28;20040;-68
2022/06/20 14:20:08;;;;;;;5.53;1.48;;;;;;;;;;5006976;28;20068;-67
2022/06/20 14:22:44;;;;;;;7.40;1.60;;;;;;;;;;5012422;28;20046;-67
2022/06/20 14:25:22;;;;;;;4.15;1.63;;;;;;;;;;5013453;28;20041;-67
2022/06/20 14:27:51;;;;;;;4.32;1.52;;;;;;;;;;5008327;28;20053;-68
2022/06/20 14:30:17;;;;;;;3.15;1.30;;;;;;;;;;4997986;28;20050;-68
2022/06/20 14:32:46;;;;;;;5.20;1.65;;;;;;;;;;5014393;28;20052;-68
2022/06/20 14:35:21;;;;;;;5.40;1.60;;;;;;;;;;5010945;28;20048;-68
2022/06/20 14:38:02;;;;;;;4.25;1.65;;;19.70;99.90;;;;;;4982297;28;20049;-67
2022/06/20 14:40:49;;;;;;;5.05;1.70;;;20.80;99.90;;;;;;5009215;28;20050;-68
2022/06/20 14:43:44;;;;;;;4.80;1.23;;;21.00;99.90;;;;;;5025859;28;20132;-68
2022/06/20 14:46:18;;;;;;;4.07;1.65;;;20.80;99.90;;;;;;5006906;28;20121;-68
2022/06/20 14:48:56;;;;;;;3.75;1.48;;;20.40;99.90;;;;;;4993732;28;20116;-68
2022/06/20 14:51:28;;;;;;;6.35;1.50;;;;;;;;;;5009271;28;20046;-67
2022/06/20 14:53:54;;;;;;;8.55;1.83;;;19.70;99.90;;;;;;5008412;28;20046;-68
2022/06/20 14:56:28;;;;;;;6.07;1.90;;;19.50;99.90;;;;;;5012404;28;20061;-67
2022/06/20 14:59:14;;;;;;;8.75;1.50;;;19.40;99.90;;;;;;4981685;28;20050;-68
2022/06/20 15:01:45;;;;;;;7.47;1.58;;;19.00;99.90;;;;;;5010177;28;20463;-68
2022/06/20 15:04:34;;;;;;;8.88;2.05;;;19.50;99.90;;;;;;5013391;28;20057;-68